Time;durP1;ratioP1;P1;durP2;ratioP2;P2;SDS_P1;SDS_P2;PMS_P1;PMS_P2;Temp;Humidity;BMP_temperature;BMP_pressure;BME280_temperature;BME280_humidity;BME280_pressure;Samples;Min_cycle;Max_cycle;Signal;HPM_P1;HPM_P2
2024/01/09 00:00:49;;;;;;;6.63;2.23;;;;;;;-1.61;100.00;103558.16;5088713;28;20183;-73
2024/01/09 00:03:15;;;;;;;5.70;1.73;;;;;;;-3.01;100.00;103391.00;5082361;28;20193;-72
2024/01/09 00:05:40;;;;;;;4.73;1.70;;;;;;;-1.77;100.00;103556.09;5068988;28;20773;-72
2024/01/09 00:08:06;;;;;;;6.13;2.30;;;;;;;-1.60;100.00;103588.81;5090641;28;20708;-72
2024/01/09 00:10:31;;;;;;;5.13;1.90;;;;;;;-2.49;100.00;103483.03;5085857;28;20199;-73
2024/01/09 00:13:00;;;;;;;4.37;2.20;;;;;;;-1.65;100.00;103619.72;5087729;28;20543;-72
2024/01/09 00:15:25;;;;;;;5.73;2.40;;;;;;;-1.68;100.00;103611.91;5085870;28;20206;-72
2024/01/09 00:17:51;;;;;;;5.70;2.00;;;;;;;-1.74;100.00;103606.81;5070856;28;20468;-72
2024/01/09 00:20:17;;;;;;;5.07;2.13;;;;;;;-2.65;100.00;103466.06;5086402;28;20194;-73
2024/01/09 00:22:42;;;;;;;5.47;2.20;;;;;;;-2.20;100.00;103525.94;5086668;28;20183;-73
2024/01/09 00:25:08;;;;;;;6.17;2.37;;;;;;;-1.91;100.00;103580.22;5089785;28;20226;-73
2024/01/09 00:27:34;;;;;;;8.80;2.40;;;;;;;-1.99;100.00;103582.25;5086610;28;20186;-72
2024/01/09 00:30:01;;;;;;;8.20;3.60;;;;;;;-1.90;100.00;103588.06;5085897;28;20201;-73
2024/01/09 00:32:27;;;;;;;9.30;4.40;;;;;;;-2.19;100.00;103582.91;5089954;28;20440;-73
2024/01/09 00:34:52;;;;;;;9.63;3.87;;;;;;;-2.18;100.00;103577.56;5083991;28;20449;-73
2024/01/09 00:37:17;;;;;;;7.40;3.20;;;;;;;-2.27;100.00;103538.44;5070127;28;20184;-72
2024/01/09 00:39:43;;;;;;;6.00;2.27;;;;;;;-2.37;100.00;103564.16;5087813;28;20260;-73
2024/01/09 00:42:08;;;;;;;6.33;1.93;;;;;;;-2.68;100.00;103513.47;5087951;28;20711;-72
2024/01/09 00:44:34;;;;;;;7.10;1.93;;;;;;;-2.43;100.00;103531.94;5087563;28;20643;-72
2024/01/09 00:47:00;;;;;;;5.80;2.13;;;;;;;-2.68;100.00;103511.69;5079013;28;20179;-73
2024/01/09 00:49:25;;;;;;;5.00;2.00;;;;;;;-2.32;100.00;103598.19;5087440;28;20663;-72
2024/01/09 00:51:50;;;;;;;5.40;2.20;;;;;;;-2.61;100.00;103557.88;5084651;28;20262;-72
2024/01/09 00:54:19;;;;;;;5.07;2.53;;;;;;;-2.57;100.00;103550.78;5067441;28;20682;-72
2024/01/09 00:56:45;;;;;;;5.00;1.87;;;;;;;-2.73;100.00;103530.19;5089447;28;20190;-73
2024/01/09 00:59:13;;;;;;;5.50;2.30;;;;;;;-2.67;100.00;103529.16;5085716;28;20472;-72
2024/01/09 01:01:38;;;;;;;5.50;2.07;;;;;;;-2.14;100.00;103586.22;5070291;28;20273;-72
2024/01/09 01:04:04;;;;;;;8.33;1.97;;;;;;;-3.15;100.00;103469.34;5089458;28;20532;-72
2024/01/09 01:06:29;;;;;;;5.80;2.40;;;;;;;-2.31;100.00;103597.28;5081069;28;20190;-73
2024/01/09 01:08:57;;;;;;;6.17;2.10;;;;;;;-2.20;100.00;103613.56;5087039;28;20240;-72
2024/01/09 01:11:23;;;;;;;6.40;2.10;;;;;;;-2.84;100.00;103510.41;5075256;28;21084;-72
2024/01/09 01:13:48;;;;;;;5.80;1.70;;;;;;;-2.49;100.00;103582.91;5084357;28;20475;-72
2024/01/09 01:16:14;;;;;;;5.63;2.10;;;;;;;-2.30;100.00;103606.88;5086887;28;20198;-72
2024/01/09 01:18:40;;;;;;;7.27;2.23;;;;;;;-2.48;100.00;103602.19;5084555;28;20266;-73
2024/01/09 01:21:05;;;;;;;5.70;2.20;;;;;;;-2.99;100.00;103512.59;5086346;28;20183;-72
2024/01/09 01:36:57;;;;;;;8.40;2.40;;;;;;;-3.13;100.00;103501.63;5120646;27;20541;-73
2024/01/09 01:39:22;;;;;;;4.20;1.70;;;;;;;-3.02;100.00;103525.81;5094871;28;20457;-72
2024/01/09 01:41:48;;;;;;;5.30;1.73;;;;;;;-3.30;100.00;103485.50;5101762;28;20428;-72
2024/01/09 01:44:16;;;;;;;5.73;2.00;;;;;;;-3.14;100.00;103526.19;5100337;28;20596;-72
2024/01/09 01:46:43;;;;;;;4.90;2.30;;;;;;;-2.61;100.00;103601.69;5097284;28;20240;-73
2024/01/09 01:49:09;;;;;;;6.33;1.73;;;;;;;-3.20;100.00;103513.22;5098952;28;20798;-72
2024/01/09 01:51:34;;;;;;;5.37;1.80;;;;;;;-2.99;100.00;103556.38;5104290;28;20448;-73
2024/01/09 01:54:01;;;;;;;8.57;2.20;;;;;;;-2.66;100.00;103604.47;5097530;28;20239;-73
2024/01/09 01:56:26;;;;;;;6.30;2.10;;;;;;;-2.75;100.00;103525.91;5105124;28;20255;-73
2024/01/09 01:58:52;;;;;;;5.97;2.23;;;;;;;-2.54;100.00;103579.59;5097775;28;20447;-72
2024/01/09 02:16:34;;;;;;;4.37;1.70;;;;;;;-3.05;100.00;103549.53;5011798;27;2421432;-73
2024/01/09 02:18:59;;;;;;;4.57;2.10;;;;;;;-3.48;100.00;103511.38;5045373;28;20478;-75
2024/01/09 02:21:24;;;;;;;5.37;2.17;;;;;;;-3.87;100.00;103435.50;5052790;28;20199;-74
2024/01/09 02:23:50;;;;;;;6.80;2.60;;;;;;;-2.89;100.00;103581.50;5049991;28;20192;-74
2024/01/09 02:26:20;;;;;;;6.17;2.23;;;;;;;-3.02;100.00;103578.34;5049917;28;20208;-74
2024/01/09 02:28:49;;;;;;;5.10;2.10;;;;;;;-3.32;100.00;103529.34;5044891;28;20212;-73
2024/01/09 02:31:15;;;;;;;6.53;2.03;;;;;;;-3.01;100.00;103577.44;5047552;28;20247;-73
2024/01/09 02:33:40;;;;;;;6.90;2.27;;;;;;;-3.51;100.00;103498.31;5032649;28;20960;-74
2024/01/09 02:36:06;;;;;;;6.07;2.10;;;;;;;-3.86;100.00;103438.97;5060829;28;20433;-74
2024/01/09 02:38:31;;;;;;;5.70;2.27;;;;;;;-3.16;100.00;103545.50;5064286;28;20202;-73
2024/01/09 02:40:57;;;;;;;5.47;2.23;;;;;;;-3.03;100.00;103560.00;5051900;28;20658;-73
2024/01/09 02:43:22;;;;;;;6.03;2.03;;;;;;;-3.63;100.00;103467.19;5053515;28;20188;-74
2024/01/09 02:45:48;;;;;;;7.13;1.80;;;;;;;-3.50;100.00;103483.44;5034139;28;20223;-74
2024/01/09 02:48:13;;;;;;;6.50;1.85;;;;;;;-3.14;100.00;103551.56;5047409;28;20844;-74
2024/01/09 02:50:38;;;;;;;6.37;2.50;;;;;;;-3.45;100.00;103505.16;5027416;28;20194;-73
2024/01/09 02:53:04;;;;;;;6.13;2.30;;;;;;;-3.14;100.00;103565.56;5053485;28;20199;-73
2024/01/09 02:55:29;;;;;;;4.73;1.90;;;;;;;-3.05;100.00;103554.78;5044889;28;20212;-73
2024/01/09 02:57:55;;;;;;;6.17;2.37;;;;;;;-3.23;100.00;103547.44;5053341;28;20320;-73
2024/01/09 03:00:21;;;;;;;4.90;2.13;;;;;;;-3.36;100.00;103514.56;5049298;28;20985;-73
2024/01/09 03:02:46;;;;;;;5.53;2.07;;;;;;;-3.15;100.00;103558.59;5053911;28;20535;-73
2024/01/09 03:05:11;;;;;;;5.40;2.47;;;;;;;-2.89;100.00;103573.63;5044697;28;20233;-73
2024/01/09 03:07:37;;;;;;;5.07;1.80;;;;;;;-3.87;100.00;103434.63;5032650;28;20298;-73
2024/01/09 03:10:03;;;;;;;5.23;2.57;;;;;;;-3.13;100.00;103587.41;5027166;28;20589;-73
2024/01/09 03:12:29;;;;;;;4.97;2.20;;;;;;;-3.90;100.00;103469.66;5033340;28;20188;-73
2024/01/09 03:14:55;;;;;;;5.37;2.33;;;;;;;-3.70;100.00;103508.47;5055229;28;20441;-74
2024/01/09 03:17:20;;;;;;;5.30;1.80;;;;;;;-3.39;100.00;103552.25;5050056;28;20212;-73
2024/01/09 03:19:46;;;;;;;5.43;2.00;;;;;;;-3.79;100.00;103452.75;5034901;28;20967;-73
2024/01/09 03:22:11;;;;;;;6.43;2.43;;;;;;;-3.39;100.00;103530.38;5041426;28;20196;-73
2024/01/09 03:24:37;;;;;;;5.80;2.40;;;;;;;-3.56;100.00;103515.94;5048573;28;20677;-73
2024/01/09 03:31:03;;;;;;;5.60;2.43;;;;;;;-5.48;100.00;103190.81;5121105;27;21029;-73
2024/01/09 03:46:54;;;;;;;6.00;2.40;;;;;;;-3.36;100.00;103567.03;5076763;27;20556;-73
2024/01/09 03:49:19;;;;;;;5.17;2.20;;;;;;;-5.69;100.00;103205.28;5054737;28;20840;-72
2024/01/09 03:51:45;;;;;;;7.73;2.63;;;;;;;-3.47;100.00;103555.09;5053650;28;20180;-72
2024/01/09 03:54:10;;;;;;;10.33;3.60;;;;;;;-3.53;100.00;103560.50;5057716;28;20202;-73
2024/01/09 03:56:36;;;;;;;7.47;2.70;;;;;;;-3.49;100.00;103574.41;5042973;28;20188;-74
2024/01/09 03:59:02;;;;;;;5.17;2.37;;;;;;;-3.87;100.00;103458.22;5049850;28;20319;-72
2024/01/09 04:01:27;;;;;;;6.53;2.90;;;;;;;-3.27;100.00;103569.41;5056561;28;20188;-73
2024/01/09 04:03:52;;;;;;;7.60;2.70;;;;;;;-3.32;100.00;103568.69;5049176;28;20191;-72
2024/01/09 04:06:18;;;;;;;7.33;2.33;;;;;;;-4.50;100.00;103401.34;5051162;28;20215;-72
2024/01/09 04:08:43;;;;;;;6.73;2.73;;;;;;;-3.26;100.00;103593.00;5051679;28;20211;-73
2024/01/09 04:11:09;;;;;;;4.90;2.30;;;;;;;-3.97;100.00;103488.19;5041686;28;20188;-73
2024/01/09 04:13:34;;;;;;;6.73;2.90;;;;;;;-3.78;100.00;103531.41;5051107;28;27945;-73
2024/01/09 04:16:00;;;;;;;6.00;2.17;;;;;;;-3.91;100.00;103519.50;5042799;28;20195;-73
2024/01/09 04:18:28;;;;;;;4.43;1.93;;;;;;;-3.43;100.00;103611.81;5046836;28;20593;-73
2024/01/09 04:20:53;;;;;;;7.30;3.03;;;;;;;-3.50;100.00;103573.53;5053768;28;20617;-73
2024/01/09 04:23:18;;;;;;;7.13;2.97;;;;;;;-3.35;100.00;103581.91;5047272;28;20442;-74
2024/01/09 04:25:44;;;;;;;5.83;2.80;;;;;;;-3.85;100.00;103511.47;5052508;28;20230;-73
2024/01/09 04:28:11;;;;;;;9.60;2.40;;;;;;;-3.69;100.00;103567.03;5046556;28;20223;-73
2024/01/09 04:30:37;;;;;;;5.70;2.40;;;;;;;-3.27;100.00;103621.91;5067570;28;20180;-73
2024/01/09 04:33:03;;;;;;;5.20;2.60;;;;;;;-3.83;100.00;103524.56;5051312;28;20439;-74
2024/01/09 04:35:28;;;;;;;5.43;2.70;;;;;;;-3.65;100.00;103579.16;5045339;28;20176;-73
2024/01/09 04:37:54;;;;;;;5.77;2.70;;;;;;;-3.56;100.00;103585.94;5047447;28;20220;-73
2024/01/09 04:40:19;;;;;;;4.80;2.40;;;;;;;-3.66;100.00;103556.47;5050803;28;20184;-73
2024/01/09 04:42:45;;;;;;;7.40;3.37;;;;;;;-3.87;100.00;103536.91;5046852;28;20275;-73
2024/01/09 04:45:10;;;;;;;6.50;3.53;;;;;;;-4.05;100.00;103485.81;5046536;28;20582;-72
2024/01/09 04:47:36;;;;;;;6.50;3.03;;;;;;;-3.63;100.00;103603.59;5039853;28;20213;-72
2024/01/09 04:50:01;;;;;;;7.03;2.30;;;;;;;-3.51;100.00;103618.19;5030573;28;20185;-75
2024/01/09 04:52:27;;;;;;;5.93;3.10;;;;;;;-3.45;100.00;103626.75;5036541;28;20184;-74
2024/01/09 04:54:52;;;;;;;6.17;2.63;;;;;;;-3.44;100.00;103631.09;5039583;28;20288;-73
2024/01/09 04:57:18;;;;;;;4.67;2.23;;;;;;;-3.46;100.00;103647.78;5040879;28;20328;-72
2024/01/09 04:59:43;;;;;;;6.33;2.67;;;;;;;-3.52;100.00;103661.94;5034827;28;20181;-73
2024/01/09 05:02:09;;;;;;;7.57;3.00;;;;;;;-3.55;100.00;103654.13;5033412;28;20558;-73
2024/01/09 05:04:35;;;;;;;5.87;2.70;;;;;;;-3.55;100.00;103655.91;5031733;28;20316;-74
2024/01/09 05:07:00;;;;;;;6.93;3.10;;;;;;;-4.00;100.00;103582.66;5039161;28;20436;-73
2024/01/09 05:09:26;;;;;;;5.30;2.40;;;;;;;-3.67;100.00;103636.94;5038033;28;20177;-73
2024/01/09 05:11:51;;;;;;;5.17;2.30;;;;;;;-3.79;100.00;103621.50;5031283;28;20187;-72
2024/01/09 05:14:17;;;;;;;5.50;2.60;;;;;;;-3.50;100.00;103675.00;5033610;28;20519;-73
2024/01/09 05:33:58;;;;;;;6.43;2.50;;;;;;;-4.26;100.00;103520.38;5065577;27;20368;-73
2024/01/09 05:36:24;;;;;;;6.53;2.70;;;;;;;-3.84;100.00;103646.97;5075153;28;20954;-73
2024/01/09 05:38:53;;;;;;;6.20;2.83;;;;;;;-3.43;100.00;103674.81;5073598;28;20298;-73
2024/01/09 05:41:22;;;;;;;5.63;2.37;;;;;;;-3.54;100.00;103673.34;5054892;28;20436;-73
2024/01/09 05:43:51;;;;;;;5.32;2.20;;;;;;;-3.80;100.00;103617.13;5055604;28;21010;-73
2024/01/09 05:46:17;;;;;;;5.80;3.07;;;;;;;-3.78;100.00;103635.47;5066382;28;20285;-72
2024/01/09 05:48:43;;;;;;;6.70;3.63;;;;;;;-4.26;100.00;103599.88;5076774;28;20502;-73
2024/01/09 05:53:40;;;;;;;6.93;2.57;;;;;;;-4.48;100.00;103538.34;5035997;28;20478;-68
2024/01/09 05:56:06;;;;;;;6.10;2.67;;;;;;;-3.70;100.00;103693.88;5035889;28;20450;-68
2024/01/09 05:58:35;;;;;;;4.90;2.57;;;;;;;-3.84;100.00;103677.59;5037705;28;20224;-68
2024/01/09 06:01:01;;;;;;;5.47;2.73;;;;;;;-3.66;100.00;103698.13;5033333;28;20456;-68
2024/01/09 06:03:27;;;;;;;5.90;2.47;;;;;;;-4.05;100.00;103647.44;5038552;28;20470;-71
2024/01/09 06:05:52;;;;;;;7.40;2.87;;;;;;;-3.60;100.00;103697.97;5041236;28;20201;-69
2024/01/09 06:08:18;;;;;;;5.50;2.80;;;;;;;-3.74;100.00;103702.69;5026924;28;20208;-69
2024/01/09 06:10:43;;;;;;;9.90;2.97;;;;;;;-3.95;100.00;103660.31;5037521;28;20208;-69
2024/01/09 06:13:09;;;;;;;7.83;2.80;;;;;;;-4.44;100.00;103593.28;5043839;28;20188;-68
2024/01/09 06:15:34;;;;;;;6.50;2.90;;;;;;;-3.78;100.00;103669.56;5045151;28;20650;-69
2024/01/09 06:18:00;;;;;;;6.30;3.20;;;;;;;-3.73;100.00;103689.56;5044237;28;20887;-68
2024/01/09 06:20:25;;;;;;;11.90;3.27;;;;;;;-4.26;100.00;103601.63;5046567;28;20187;-69
2024/01/09 06:22:51;;;;;;;6.33;3.23;;;;;;;-4.90;100.00;103480.81;5049711;28;20216;-69
2024/01/09 06:25:17;;;;;;;5.60;2.72;;;;;;;-4.56;100.00;103541.16;5042439;28;20707;-69
2024/01/09 06:27:42;;;;;;;7.60;3.10;;;;;;;-3.82;100.00;103670.53;5024910;28;20336;-69
2024/01/09 06:30:08;;;;;;;7.70;3.30;;;;;;;-4.67;100.00;103536.16;5041827;28;20214;-69
2024/01/09 06:32:33;;;;;;;10.20;3.57;;;;;;;-4.46;100.00;103544.44;5045612;28;20203;-69
2024/01/09 06:34:59;;;;;;;7.37;3.40;;;;;;;-4.45;100.00;103567.13;5035262;28;20275;-68
2024/01/09 06:37:24;;;;;;;8.03;3.87;;;;;;;-3.88;100.00;103634.81;5021472;28;20217;-69
2024/01/09 06:39:49;;;;;;;7.90;3.43;;;;;;;-3.87;100.00;103658.41;5042048;28;20182;-69
2024/01/09 06:42:15;;;;;;;8.23;3.40;;;;;;;-3.93;100.00;103636.72;5036758;28;20782;-68
2024/01/09 06:44:41;;;;;;;6.67;3.33;;;;;;;-4.24;100.00;103584.13;5025174;28;20199;-68
2024/01/09 07:02:52;;;;;;;7.43;3.20;;;;;;;-4.40;100.00;103583.59;5047931;28;20560;-68
2024/01/09 07:05:18;;;;;;;7.70;3.70;;;;;;;-3.92;100.00;103625.31;5046331;28;20968;-68
2024/01/09 07:07:44;;;;;;;6.33;3.73;;;;;;;-5.06;100.00;103477.69;5054348;28;20211;-68
2024/01/09 07:10:09;;;;;;;7.00;3.70;;;;;;;-4.15;100.00;103626.69;5052473;28;20194;-68
2024/01/09 07:12:35;;;;;;;9.57;4.60;;;;;;;-4.04;100.00;103654.44;5050384;28;20226;-68
2024/01/09 07:15:00;;;;;;;6.83;3.40;;;;;;;-4.01;100.00;103643.88;5047554;28;20208;-68
2024/01/09 07:17:28;;;;;;;6.80;3.57;;;;;;;-4.08;100.00;103661.50;5050968;28;20704;-69
2024/01/09 07:19:54;;;;;;;8.50;4.23;;;;;;;-5.04;100.00;103484.59;5043954;28;20198;-69
2024/01/09 07:22:19;;;;;;;9.27;4.70;;;;;;;-4.77;100.00;103519.81;5048848;28;20430;-68
2024/01/09 07:24:45;;;;;;;8.20;4.50;;;;;;;-4.77;100.00;103530.28;5053301;28;20270;-68
2024/01/09 07:27:12;;;;;;;8.87;4.40;;;;;;;-4.40;100.00;103626.38;5051084;28;20723;-68
2024/01/09 07:29:37;;;;;;;8.03;4.50;;;;;;;-4.29;100.00;103609.56;5040259;28;20275;-69
2024/01/09 07:32:03;;;;;;;8.87;4.57;;;;;;;-4.78;100.00;103546.88;5047582;28;20547;-68
2024/01/09 07:34:29;;;;;;;8.17;4.73;;;;;;;-4.55;100.00;103580.41;5052400;28;20196;-68
2024/01/09 07:36:54;;;;;;;7.43;4.17;;;;;;;-4.05;100.00;103650.06;5050204;28;20465;-68
2024/01/09 07:39:20;;;;;;;12.33;4.23;;;;;;;-4.07;100.00;103639.63;5050815;28;20188;-68
2024/01/09 07:41:45;;;;;;;11.60;5.40;;;;;;;-4.25;100.00;103601.63;5051546;28;20650;-68
2024/01/09 07:44:11;;;;;;;7.63;4.67;;;;;;;-4.12;100.00;103638.88;5052758;28;20179;-68
2024/01/09 07:46:37;;;;;;;10.33;5.50;;;;;;;-4.02;100.00;103639.50;5051986;28;20250;-68
2024/01/09 07:49:02;;;;;;;10.73;6.27;;;;;;;-4.59;100.00;103559.59;5052800;28;20453;-68
2024/01/09 07:51:28;;;;;;;10.07;6.23;;;;;;;-4.96;100.00;103505.38;5048892;28;20733;-68
2024/01/09 07:53:53;;;;;;;11.80;6.80;;;;;;;-4.65;100.00;103578.06;5054501;28;20192;-68
2024/01/09 07:56:19;;;;;;;13.67;7.87;;;;;;;-4.69;100.00;103571.13;5049090;28;20176;-68
2024/01/09 07:58:45;;;;;;;13.80;8.00;;;;;;;-4.42;100.00;103580.16;5054629;28;20327;-68
2024/01/09 08:01:11;;;;;;;12.30;6.93;;;;;;;-4.35;100.00;103594.84;5048545;28;20244;-68
2024/01/09 08:03:37;;;;;;;12.37;5.87;;;;;;;-4.21;100.00;103626.84;5047916;28;20434;-68
2024/01/09 08:06:03;;;;;;;11.90;6.40;;;;;;;-4.63;100.00;103548.31;5050947;28;20462;-68
2024/01/09 08:08:29;;;;;;;9.80;6.40;;;;;;;-4.91;100.00;103503.53;5055120;28;20516;-68
2024/01/09 08:10:54;;;;;;;9.20;5.77;;;;;;;-3.97;100.00;103612.28;5053626;28;20230;-68
2024/01/09 08:13:19;;;;;;;14.53;6.23;;;;;;;-5.08;100.00;103458.53;5043836;28;20231;-68
2024/01/09 08:15:45;;;;;;;9.40;5.30;;;;;;;-4.39;100.00;103554.75;5045058;28;20208;-68
2024/01/09 08:18:10;;;;;;;9.70;5.20;;;;;;;-4.39;100.00;103577.47;5039986;28;20199;-68
2024/01/09 08:20:36;;;;;;;10.53;6.10;;;;;;;-4.08;100.00;103632.66;5030591;28;20176;-68
2024/01/09 08:23:02;;;;;;;10.90;6.33;;;;;;;-4.00;100.00;103629.88;5037145;28;20203;-69
2024/01/09 08:25:28;;;;;;;9.47;5.73;;;;;;;-5.01;100.00;103481.91;5032293;28;20204;-68
2024/01/09 08:27:53;;;;;;;10.60;5.93;;;;;;;-4.04;100.00;103600.25;5034137;28;20461;-68
2024/01/09 08:30:19;;;;;;;9.90;5.83;;;;;;;-3.74;100.00;103624.00;5039051;28;20482;-68
2024/01/09 08:32:44;;;;;;;11.70;5.90;;;;;;;-4.26;100.00;103585.91;5029616;28;20189;-68
2024/01/09 08:35:10;;;;;;;9.00;5.00;;;;;;;-3.77;100.00;103647.69;5036802;28;20260;-68
2024/01/09 08:37:36;;;;;;;11.67;6.00;;;;;;;-4.68;100.00;103528.34;5037409;28;20204;-68
2024/01/09 08:40:02;;;;;;;9.10;5.40;;;;;;;-3.82;100.00;103660.88;5032874;28;20208;-68
2024/01/09 08:42:27;;;;;;;10.17;6.17;;;;;;;-3.90;100.00;103673.34;5042406;28;20457;-68
2024/01/09 08:44:53;;;;;;;10.60;5.80;;;;;;;-4.01;100.00;103621.16;5038471;28;20536;-69
2024/01/09 08:47:18;;;;;;;10.90;5.60;;;;;;;-4.58;100.00;103538.56;5035517;28;20244;-68
2024/01/09 08:49:44;;;;;;;8.47;5.27;;;;;;;-3.72;100.00;103669.44;5033933;28;20184;-68
2024/01/09 08:52:09;;;;;;;12.37;6.50;;;;;;;-3.74;100.00;103672.06;5043722;28;20829;-68
2024/01/09 08:54:35;;;;;;;10.00;5.90;;;;;;;-4.24;100.00;103571.03;5035624;28;20618;-69
2024/01/09 09:10:08;;;;;;;8.27;4.80;;;;;;;-3.29;100.00;103668.38;5140571;27;20563;-68
2024/01/09 09:12:33;;;;;;;10.20;6.53;;;;;;;-3.21;100.00;103700.50;5135818;27;20963;-68
2024/01/09 09:14:59;;;;;;;10.57;5.77;;;;;;;-3.09;100.00;103701.97;5146310;27;20189;-68
2024/01/09 09:17:24;;;;;;;9.80;5.50;;;;;;;-4.52;100.00;103460.75;5146656;27;20200;-68
2024/01/09 09:19:50;;;;;;;9.50;5.07;;;;;;;-3.53;100.00;103597.25;5157467;27;20464;-68
2024/01/09 09:22:15;;;;;;;9.30;4.60;;;;;;;-3.43;100.00;103617.06;5157873;27;20185;-68
2024/01/09 09:24:42;;;;;;;9.10;5.50;;;;;;;-2.87;100.00;103725.91;5158991;27;20185;-68
2024/01/09 09:27:07;;;;;;;10.43;5.53;;;;;;;-2.73;100.00;103715.88;5152135;27;20195;-68
2024/01/09 09:29:33;;;;;;;8.70;6.00;;;;;;;-2.64;100.00;103726.13;5152432;27;20446;-68
2024/01/09 09:31:58;;;;;;;9.80;4.60;;;;;;;-3.15;100.00;103678.47;5155451;27;20888;-68
2024/01/09 09:34:24;;;;;;;13.00;5.53;;;;;;;-3.02;100.00;103716.66;5156059;27;20213;-68
2024/01/09 09:36:52;;;;;;;9.10;4.93;;;;;;;-2.71;100.00;103745.63;5160762;27;20647;-68
2024/01/09 09:39:17;;;;;;;9.53;5.20;;;;;;;-2.63;100.00;103753.28;5157502;27;20201;-70
2024/01/09 09:41:47;;;;;;;9.30;5.67;;;;;;;-3.12;100.00;103688.94;5146087;27;20441;-69
2024/01/09 09:44:15;;;;;;;10.20;5.60;;;;;;;-3.38;100.00;103651.09;5156576;27;20746;-69
2024/01/09 09:46:41;;;;;;;12.43;5.03;;;;;;;-2.54;100.00;103750.41;5155586;27;20434;-71
2024/01/09 09:49:08;;;;;;;8.87;4.90;;;;;;;-2.47;100.00;103754.59;5160135;27;20448;-70
2024/01/09 09:51:35;;;;;;;7.83;4.00;;;;;;;-2.53;100.00;103768.75;5160015;27;20440;-70
2024/01/09 09:54:02;;;;;;;8.50;4.70;;;;;;;-2.39;100.00;103754.38;5152816;27;20445;-70
2024/01/09 09:56:28;;;;;;;9.47;5.07;;;;;;;-2.81;100.00;103683.69;5155904;27;20911;-71
2024/01/09 09:58:54;;;;;;;8.13;5.10;;;;;;;-2.20;100.00;103760.81;5152304;27;20465;-70
2024/01/09 10:01:22;;;;;;;9.07;5.20;;;;;;;-2.21;100.00;103756.47;5161335;27;20430;-70
2024/01/09 10:04:27;;;;;;;8.37;4.93;;;;;;;-3.26;100.00;103581.66;5156573;27;20523;-71
2024/01/09 10:06:55;;;;;;;8.73;4.93;;;;;;;-2.10;100.00;103706.22;5159035;27;20525;-69
2024/01/09 10:09:22;;;;;;;8.10;4.90;;;;;;;-2.46;100.00;103647.69;5169552;27;20442;-68
2024/01/09 10:11:49;;;;;;;9.07;4.20;;;;;;;-3.09;100.00;103544.44;5158588;27;20441;-70
2024/01/09 10:14:15;;;;;;;10.93;5.00;;;;;;;-1.90;100.00;103721.38;5156278;27;21185;-71
2024/01/09 10:16:54;;;;;;;8.93;4.93;;;;;;;-1.91;100.00;103703.88;5157267;27;20440;-70
2024/01/09 10:19:23;;;;;;;8.70;5.07;;;;;;;-2.54;100.00;103624.28;5153896;27;20212;-71
2024/01/09 10:21:51;;;;;;;10.50;5.03;;;;;;;-1.87;100.00;103727.41;5132856;27;20445;-71
2024/01/09 10:24:17;;;;;;;10.03;5.10;;;;;;;-1.90;100.00;103722.25;5142708;27;20441;-71
2024/01/09 10:26:43;;;;;;;13.17;5.43;;;;;;;-1.54;100.00;103710.59;5138027;27;20491;-71
2024/01/09 10:29:10;;;;;;;6.93;4.30;;;;;;;-2.06;100.00;103623.66;5150166;27;20449;-70
2024/01/09 10:31:36;;;;;;;9.23;4.30;;;;;;;-2.41;100.00;103594.06;5142888;27;20806;-71
2024/01/09 10:34:01;;;;;;;8.40;4.93;;;;;;;-1.69;100.00;103707.56;5143239;27;20445;-70
2024/01/09 10:36:31;;;;;;;8.30;4.80;;;;;;;-1.53;100.00;103730.75;5141769;27;20438;-70
2024/01/09 10:39:04;;;;;;;6.87;4.10;;;;;;;-1.38;100.00;103714.47;5138521;27;20216;-70
2024/01/09 10:41:30;;;;;;;9.80;4.80;;;;;;;-1.43;100.00;103719.03;5134758;27;20470;-71
2024/01/09 10:43:56;;;;;;;8.40;4.60;;;;;;;-1.29;100.00;103706.25;5144291;27;20935;-71
2024/01/09 10:46:26;;;;;;;7.50;4.50;;;;;;;-1.73;100.00;103621.72;5149958;27;20455;-70
2024/01/09 10:48:53;;;;;;;7.70;4.37;;;;;;;-1.83;100.00;103601.88;5136594;27;20193;-70
2024/01/09 10:51:18;;;;;;;8.80;4.43;;;;;;;-1.03;100.00;103712.44;5148366;27;21023;-70
2024/01/09 10:53:48;;;;;;;6.90;3.70;;;;;;;-1.56;100.00;103633.44;5142299;27;20538;-70
2024/01/09 10:56:17;;;;;;;8.07;4.63;;;;;;;-0.70;100.00;103708.59;5142725;27;20670;-70
2024/01/09 10:58:45;;;;;;;7.30;4.37;;;;;;;-0.81;100.00;103720.41;5134930;27;20472;-70
2024/01/09 11:01:11;;;;;;;7.70;4.10;;;;;;;-0.70;100.00;103705.94;5144032;27;20427;-70
2024/01/09 11:03:36;;;;;;;8.27;4.17;;;;;;;-0.82;100.00;103708.16;5135145;27;20446;-70
2024/01/09 11:06:04;;;;;;;7.60;3.97;;;;;;;-0.91;100.00;103691.75;5137954;27;20265;-69
2024/01/09 11:08:34;;;;;;;8.30;4.03;;;;;;;-1.11;100.00;103649.44;5136027;27;20229;-70
2024/01/09 11:11:03;;;;;;;7.70;4.10;;;;;;;-1.35;100.00;103587.13;5139941;27;20430;-69
2024/01/09 11:13:29;;;;;;;8.80;3.93;;;;;;;-0.46;100.00;103700.72;5141312;27;20474;-70
2024/01/09 11:15:56;;;;;;;6.50;3.70;;;;;;;-0.98;100.00;103623.56;5137238;27;20434;-70
2024/01/09 11:18:23;;;;;;;7.87;4.07;;;;;;;-0.51;100.00;103689.47;5137780;27;20828;-70
2024/01/09 11:21:10;;;;;;;7.57;3.83;;;;;;;-0.46;100.00;103674.34;5137730;27;20782;-71
2024/01/09 11:23:51;;;;;;;7.50;3.60;;;;;;;-0.32;100.00;103695.78;5127835;27;20433;-70
2024/01/09 11:26:17;;;;;;;8.10;4.10;;;;;;;-0.43;100.00;103678.63;5145481;27;20427;-71
2024/01/09 11:28:44;;;;;;;7.83;4.20;;;;;;;-0.60;100.00;103621.28;5142457;27;20451;-71
2024/01/09 11:31:13;;;;;;;7.17;3.90;;;;;;;0.01;100.00;103689.28;5142440;27;20670;-69
2024/01/09 11:33:41;;;;;;;7.13;3.50;;;;;;;-0.04;100.00;103684.16;5141667;27;20508;-70
2024/01/09 11:36:08;;;;;;;8.20;3.47;;;;;;;-0.15;100.00;103686.34;5135345;27;20517;-70
2024/01/09 11:38:34;;;;;;;7.90;3.70;;;;;;;0.13;100.00;103697.56;5138666;27;20474;-70
2024/01/09 11:41:07;;;;;;;6.13;2.87;;;;;;;0.05;100.00;103683.81;5137806;27;20443;-70
2024/01/09 11:44:04;;;;;;;6.17;3.37;;;;;;;0.28;100.00;103668.84;5145951;27;20439;-71
2024/01/09 11:46:34;;;;;;;6.77;3.27;;;;;;;0.17;100.00;103661.34;5133158;27;20437;-71
2024/01/09 11:49:00;;;;;;;6.87;2.87;;;;;;;-0.14;100.00;103628.28;5142735;27;20545;-70
2024/01/09 11:51:25;;;;;;;6.73;3.50;;;;;;;-0.60;100.00;103540.41;5141140;27;20426;-71
2024/01/09 11:53:51;;;;;;;7.67;3.20;;;;;;;-0.57;100.00;103513.91;5135670;27;20808;-70
2024/01/09 11:56:18;;;;;;;5.43;3.03;;;;;;;0.26;100.00;103655.72;5141048;27;20193;-71
2024/01/09 11:58:44;;;;;;;7.17;3.50;;;;;;;0.53;100.00;103647.56;5133341;27;20209;-71
2024/01/09 12:01:10;;;;;;;5.80;2.83;;;;;;;0.01;100.00;103589.00;5139576;27;20943;-70
2024/01/09 12:03:35;;;;;;;6.63;2.60;;;;;;;-0.10;100.00;103582.38;5150259;27;20440;-71
2024/01/09 12:06:04;;;;;;;6.63;2.90;;;;;;;0.10;100.00;103605.31;5139620;27;20216;-71
2024/01/09 12:08:33;;;;;;;4.77;2.20;;;;;;;0.37;100.00;103657.88;5135312;27;20791;-71
2024/01/09 12:10:59;;;;;;;5.20;2.43;;;;;;;0.30;100.00;103625.59;5141457;27;20510;-71
2024/01/09 12:13:26;;;;;;;5.30;2.53;;;;;;;0.11;100.00;103609.66;5134544;27;20513;-70
2024/01/09 12:15:51;;;;;;;7.07;3.40;;;;;;;0.53;100.00;103647.56;5142721;27;20453;-71
2024/01/09 12:18:16;;;;;;;7.30;2.90;;;;;;;0.31;100.00;103631.75;5132696;27;20900;-71
2024/01/09 12:20:42;;;;;;;7.73;2.63;;;;;;;0.30;100.00;103617.69;5137702;27;20662;-70
2024/01/09 12:23:08;;;;;;;5.70;2.60;;;;;;;0.19;100.00;103593.50;5139951;27;20218;-70
2024/01/09 12:25:34;;;;;;;6.33;2.40;;;;;;;-0.43;100.00;103499.31;5146112;27;20601;-71
2024/01/09 12:28:01;;;;;;;6.73;2.50;;;;;;;0.50;100.00;103602.78;5139521;27;20490;-70
2024/01/09 12:30:28;;;;;;;5.60;2.43;;;;;;;-0.18;100.00;103509.72;5136277;27;20461;-70
2024/01/09 12:32:54;;;;;;;5.73;2.80;;;;;;;-0.43;100.00;103442.19;5140868;27;20434;-70
2024/01/09 12:35:20;;;;;;;5.90;2.47;;;;;;;0.53;100.00;103597.38;5139057;27;20445;-71
2024/01/09 12:37:46;;;;;;;5.23;2.30;;;;;;;0.56;100.00;103584.91;5152182;27;20519;-70
2024/01/09 12:40:19;;;;;;;4.50;2.03;;;;;;;0.59;100.00;103544.28;5134289;27;20445;-71
2024/01/09 12:42:45;;;;;;;5.20;2.13;;;;;;;0.96;100.00;103580.50;5143350;27;20434;-71
2024/01/09 12:45:11;;;;;;;6.70;2.33;;;;;;;0.70;100.00;103525.34;5140532;27;20472;-71
2024/01/09 12:47:37;;;;;;;5.50;2.27;;;;;;;0.76;100.00;103535.63;5138772;27;20469;-71